createdAt,value
2018-02-23T00:03:28.047Z,-4.13
2018-02-23T00:05:57.168Z,-4.21
2018-02-23T00:08:25.612Z,-4.32
2018-02-23T00:10:54.003Z,-4.43
2018-02-23T00:13:22.377Z,-4.42
2018-02-23T00:15:50.717Z,-4.38
2018-02-23T00:18:19.081Z,-4.41
2018-02-23T00:20:47.685Z,-4.55
2018-02-23T00:23:16.055Z,-4.58
2018-02-23T00:25:44.409Z,-4.54
2018-02-23T00:28:12.773Z,-4.62
2018-02-23T00:30:41.143Z,-4.62
2018-02-23T00:33:09.528Z,-4.59
2018-02-23T00:35:37.866Z,-4.47
2018-02-23T00:38:06.993Z,-4.56
2018-02-23T00:40:35.376Z,-4.64
2018-02-23T00:43:03.723Z,-4.66
2018-02-23T00:45:33.195Z,-4.64
2018-02-23T00:48:01.548Z,-4.58
2018-02-23T00:50:30.695Z,-4.68
2018-02-23T00:52:59.877Z,-4.71
2018-02-23T00:55:28.259Z,-4.77
2018-02-23T00:57:56.617Z,-4.69
2018-02-23T01:00:32.280Z,-4.73
2018-02-23T01:03:00.612Z,-4.61
2018-02-23T01:05:29.023Z,-4.62
2018-02-23T01:07:57.399Z,-4.74
2018-02-23T01:10:25.736Z,-4.83
2018-02-23T01:12:54.113Z,-4.70
2018-02-23T01:15:22.493Z,-4.76
2018-02-23T01:17:50.872Z,-4.89
2018-02-23T01:20:19.228Z,-4.82
2018-02-23T01:22:47.997Z,-4.79
2018-02-23T01:25:16.375Z,-4.85
2018-02-23T01:27:44.713Z,-4.97
2018-02-23T01:30:13.081Z,-5.00
2018-02-23T01:32:41.419Z,-5.07
2018-02-23T01:35:11.139Z,-5.14
2018-02-23T01:37:40.251Z,-5.15
2018-02-23T01:40:08.614Z,-5.16
2018-02-23T01:42:37.369Z,-5.27
2018-02-23T01:45:05.701Z,-5.26
2018-02-23T01:47:34.076Z,-5.23
2018-02-23T01:50:02.429Z,-5.34
2018-02-23T01:52:30.840Z,-5.53
2018-02-23T01:54:59.977Z,-5.33
2018-02-23T01:57:28.324Z,-5.42
2018-02-23T01:59:57.621Z,-5.42
2018-02-23T02:02:25.962Z,-5.46
2018-02-23T02:04:54.333Z,-5.51
2018-02-23T02:07:23.477Z,-5.52
2018-02-23T02:09:51.780Z,-5.58
2018-02-23T02:12:20.182Z,-5.69
2018-02-23T02:14:49.288Z,-5.64
2018-02-23T02:17:18.400Z,-5.65
2018-02-23T02:19:46.872Z,-5.73
2018-02-23T02:22:15.209Z,-5.63
2018-02-23T02:24:43.624Z,-5.73
2018-02-23T02:27:11.922Z,-5.74
2018-02-23T02:29:40.296Z,-5.68
2018-02-23T02:32:08.675Z,-5.61
2018-02-23T02:34:37.021Z,-5.72
2018-02-23T02:37:06.157Z,-5.65
2018-02-23T02:39:34.504Z,-5.64
2018-02-23T02:42:02.859Z,-5.56
2018-02-23T02:44:31.189Z,-5.64
2018-02-23T02:46:59.560Z,-5.69
2018-02-23T02:49:27.913Z,-5.70
2018-02-23T02:51:56.289Z,-5.67
2018-02-23T02:54:24.628Z,-5.78
2018-02-23T02:56:52.999Z,-5.77
2018-02-23T02:59:25.457Z,-5.70
2018-02-23T03:01:53.838Z,-5.77
2018-02-23T03:04:22.217Z,-5.84
2018-02-23T03:06:50.606Z,-5.85
2018-02-23T03:09:18.972Z,-5.84
2018-02-23T03:11:47.320Z,-5.79
2018-02-23T03:14:15.700Z,-5.87
2018-02-23T03:16:44.079Z,-5.87
2018-02-23T03:19:13.207Z,-5.87
2018-02-23T03:21:41.538Z,-5.82
2018-02-23T03:24:10.708Z,-5.85
2018-02-23T03:26:39.039Z,-5.82
2018-02-23T03:29:07.377Z,-5.90
2018-02-23T03:31:36.521Z,-5.83
2018-02-23T03:34:04.910Z,-5.90
2018-02-23T03:36:34.070Z,-5.87
2018-02-23T03:39:02.472Z,-5.96
2018-02-23T03:41:30.832Z,-6.05
2018-02-23T03:43:59.199Z,-6.03
2018-02-23T03:46:28.380Z,-6.05
2018-02-23T03:48:57.704Z,-6.05
2018-02-23T03:51:26.108Z,-5.98
2018-02-23T03:53:54.464Z,-6.08
2018-02-23T03:56:22.936Z,-6.09
2018-02-23T03:58:51.481Z,-6.17
2018-02-23T04:01:19.823Z,-6.30
2018-02-23T04:03:48.264Z,-6.20
2018-02-23T04:06:17.893Z,-6.32
2018-02-23T04:08:46.326Z,-6.33
2018-02-23T04:11:14.704Z,-6.36
2018-02-23T04:13:43.230Z,-6.49
2018-02-23T04:16:11.537Z,-6.43
2018-02-23T04:18:39.885Z,-6.36
2018-02-23T04:21:08.251Z,-6.33
2018-02-23T04:23:37.371Z,-6.51
2018-02-23T04:26:05.713Z,-6.44
2018-02-23T04:28:34.886Z,-6.56
2018-02-23T04:31:03.195Z,-6.59
2018-02-23T04:33:32.327Z,-6.62
2018-02-23T04:36:00.652Z,-6.62
2018-02-23T04:38:29.027Z,-6.46
2018-02-23T04:40:57.359Z,-6.54
2018-02-23T04:43:25.752Z,-6.53
2018-02-23T04:45:54.112Z,-6.56
2018-02-23T04:48:22.455Z,-6.58
2018-02-23T04:50:51.599Z,-6.57
2018-02-23T04:53:19.908Z,-6.57
2018-02-23T04:55:49.017Z,-6.61
2018-02-23T04:58:18.156Z,-6.58
2018-02-23T05:00:46.547Z,-6.53
2018-02-23T05:03:14.912Z,-6.56
2018-02-23T05:05:43.283Z,-6.72
2018-02-23T05:08:11.604Z,-6.63
2018-02-23T05:10:39.965Z,-6.70
2018-02-23T05:13:08.318Z,-6.77
2018-02-23T05:15:36.653Z,-6.81
2018-02-23T05:18:06.539Z,-6.86
2018-02-23T05:20:34.887Z,-6.88
2018-02-23T05:23:03.228Z,-6.79
2018-02-23T05:25:32.579Z,-6.85
2018-02-23T05:28:00.913Z,-6.96
2018-02-23T05:30:30.067Z,-6.99
2018-02-23T05:32:58.384Z,-7.03
2018-02-23T05:35:27.500Z,-7.03
2018-02-23T05:37:56.737Z,-7.09
2018-02-23T05:40:25.095Z,-7.09
2018-02-23T05:42:53.570Z,-7.15
2018-02-23T05:45:22.302Z,-7.10
2018-02-23T05:47:50.667Z,-7.07
2018-02-23T05:50:18.992Z,-7.08
2018-02-23T05:52:47.468Z,-7.10
2018-02-23T05:55:15.799Z,-7.13
2018-02-23T05:57:44.138Z,-7.12
2018-02-23T06:00:12.882Z,-7.12
2018-02-23T06:02:41.207Z,-7.15
2018-02-23T06:05:09.553Z,-7.16
2018-02-23T06:07:38.261Z,-7.08
2018-02-23T06:10:06.618Z,-7.07
2018-02-23T06:12:35.721Z,-7.10
2018-02-23T06:15:04.061Z,-7.19
2018-02-23T06:17:37.976Z,-7.23
2018-02-23T06:20:09.131Z,-7.15
2018-02-23T06:22:38.248Z,-7.22
2018-02-23T06:25:06.604Z,-7.08
2018-02-23T06:27:34.942Z,-7.09
2018-02-23T06:30:03.338Z,-7.09
2018-02-23T06:32:31.707Z,-7.01
2018-02-23T06:35:00.053Z,-7.04
2018-02-23T06:37:28.381Z,-7.02
2018-02-23T06:39:57.102Z,-6.96
2018-02-23T06:42:25.477Z,-6.95
2018-02-23T06:44:53.800Z,-6.97
2018-02-23T06:47:22.936Z,-6.96
2018-02-23T06:49:52.039Z,-6.91
2018-02-23T06:52:20.403Z,-6.85
2018-02-23T06:54:49.506Z,-6.61
2018-02-23T06:57:18.626Z,-6.25
2018-02-23T06:59:47.007Z,-6.27
2018-02-23T07:02:15.362Z,-6.15
2018-02-23T07:04:43.721Z,-5.99
2018-02-23T07:07:12.056Z,-5.90
2018-02-23T07:09:40.423Z,-5.97
2018-02-23T07:12:08.767Z,-5.63
2018-02-23T07:14:37.902Z,-5.57
2018-02-23T07:17:06.266Z,-5.37
2018-02-23T07:19:34.670Z,-5.82
2018-02-23T07:22:03.011Z,-5.86
2018-02-23T07:24:31.373Z,-5.82
2018-02-23T07:27:00.480Z,-5.48
2018-02-23T07:29:29.612Z,-5.36
2018-02-23T07:31:57.925Z,-5.01
2018-02-23T07:34:26.253Z,-5.13
2018-02-23T07:36:54.628Z,-5.43
2018-02-23T07:39:24.302Z,-5.48
2018-02-23T07:41:52.728Z,-5.51
2018-02-23T07:44:21.307Z,-5.42
2018-02-23T07:46:50.447Z,-5.49
2018-02-23T07:49:20.931Z,-5.36
2018-02-23T07:51:49.440Z,-5.30
2018-02-23T07:54:17.929Z,-5.33
2018-02-23T07:56:47.098Z,-5.21
2018-02-23T07:59:15.480Z,-5.02
2018-02-23T08:01:43.792Z,-4.73
2018-02-23T08:04:12.167Z,-4.77
2018-02-23T08:06:41.659Z,-4.66
2018-02-23T08:09:10.012Z,-4.42
2018-02-23T08:11:38.372Z,-4.44
2018-02-23T08:14:06.798Z,-4.53
2018-02-23T08:16:35.150Z,-4.41
2018-02-23T08:19:03.922Z,-4.49
2018-02-23T08:21:32.258Z,-4.65
2018-02-23T08:24:01.404Z,-4.62
2018-02-23T08:26:35.473Z,-4.34
2018-02-23T08:29:28.015Z,-4.17
2018-02-23T08:31:57.162Z,-4.21
2018-02-23T08:34:25.489Z,-4.17
2018-02-23T08:36:54.606Z,-4.07
2018-02-23T08:39:22.978Z,-4.29
2018-02-23T08:41:51.300Z,-4.19
2018-02-23T08:44:19.722Z,-3.95
2018-02-23T08:46:48.841Z,-3.81
2018-02-23T08:49:17.177Z,-4.07
2018-02-23T08:51:45.525Z,-4.14
2018-02-23T08:54:15.189Z,-4.07
2018-02-23T08:56:44.333Z,-4.01
2018-02-23T08:59:13.437Z,-4.13
2018-02-23T09:01:41.795Z,-3.98
2018-02-23T09:04:10.159Z,-3.90
2018-02-23T09:06:38.530Z,-4.01
2018-02-23T09:09:06.863Z,-3.94
2018-02-23T09:11:35.225Z,-3.90
2018-02-23T09:14:03.545Z,-3.74
2018-02-23T09:16:32.665Z,-3.25
2018-02-23T09:19:01.013Z,-3.07
2018-02-23T12:10:08.782Z,-2.00
2018-02-23T12:12:37.169Z,-1.89
2018-02-23T12:15:05.583Z,-1.79
2018-02-23T12:17:33.913Z,-1.86
2018-02-23T12:20:02.301Z,-1.68
2018-02-23T12:22:31.481Z,-1.71
2018-02-23T12:24:59.948Z,-1.89
2018-02-23T12:27:28.315Z,-1.73
2018-02-23T12:29:57.482Z,-1.68
2018-02-23T12:32:25.885Z,-1.61
2018-02-23T12:34:54.210Z,-1.62
2018-02-23T12:37:22.554Z,-1.86
2018-02-23T12:39:51.693Z,-1.88
2018-02-23T12:42:20.057Z,-1.68
2018-02-23T12:44:48.451Z,-1.71
2018-02-23T12:47:16.823Z,-1.82
2018-02-23T12:49:45.243Z,-1.71
2018-02-23T12:52:13.583Z,-1.67
2018-02-23T12:54:41.949Z,-1.68
2018-02-23T12:57:10.315Z,-1.63
2018-02-23T12:59:38.695Z,-1.49
2018-02-23T13:02:07.040Z,-1.61
2018-02-23T13:04:36.163Z,-1.64
2018-02-23T13:07:05.262Z,-1.68
2018-02-23T13:09:33.651Z,-1.57
2018-02-23T13:12:02.015Z,-1.51
2018-02-23T13:14:35.774Z,-1.40
2018-02-23T13:17:05.155Z,-1.46
2018-02-23T13:19:34.206Z,-1.50
2018-02-23T13:22:02.542Z,-1.55
2018-02-23T13:24:30.883Z,-1.45
2018-02-23T13:27:04.772Z,-1.54
2018-02-23T13:29:33.117Z,-1.40
2018-02-23T13:32:01.495Z,-1.44
2018-02-23T13:34:29.826Z,-1.42
2018-02-23T13:36:58.214Z,-1.41
2018-02-23T13:39:26.552Z,-1.47
2018-02-23T13:41:55.675Z,-1.38
2018-02-23T13:44:24.010Z,-1.43
2018-02-23T13:46:53.566Z,-1.40
2018-02-23T13:49:21.901Z,-1.45
2018-02-23T13:51:51.027Z,-1.44
2018-02-23T13:54:24.350Z,-1.39
2018-02-23T13:56:52.697Z,-1.42
2018-02-23T13:59:21.056Z,-1.49
2018-02-23T14:01:50.181Z,-1.47
2018-02-23T14:04:20.049Z,-1.42
2018-02-23T14:06:49.518Z,-1.42
2018-02-23T14:09:17.999Z,-1.29
2018-02-23T14:11:46.334Z,-1.31
2018-02-23T14:14:14.659Z,-1.32
2018-02-23T14:16:43.023Z,-1.31
2018-02-23T14:19:12.125Z,-1.36
2018-02-23T14:21:41.240Z,-1.34
2018-02-23T14:24:09.597Z,-1.28
2018-02-23T14:26:37.930Z,-1.17
2018-02-23T14:29:06.314Z,-1.17
2018-02-23T14:31:34.695Z,-1.23
2018-02-23T14:34:03.036Z,-1.28
2018-02-23T14:36:31.388Z,-1.32
2018-02-23T14:38:59.751Z,-1.27
2018-02-23T14:41:28.837Z,-1.31
2018-02-23T14:43:57.207Z,-1.27
2018-02-23T14:46:25.555Z,-1.28
2018-02-23T14:49:20.834Z,-1.33
2018-02-23T14:51:49.179Z,-1.34
2018-02-23T14:54:17.536Z,-1.34
2018-02-23T14:56:45.903Z,-1.31
2018-02-23T14:59:15.011Z,-1.34
2018-02-23T15:01:43.342Z,-1.33
2018-02-23T15:04:11.711Z,-1.30
2018-02-23T15:06:40.035Z,-1.32
2018-02-23T15:09:10.014Z,-1.36
2018-02-23T15:11:38.358Z,-1.34
2018-02-23T15:14:06.731Z,-1.39
2018-02-23T15:16:35.064Z,-1.44
2018-02-23T15:19:03.394Z,-1.40
2018-02-23T15:21:31.762Z,-1.43
2018-02-23T15:24:00.107Z,-1.41
2018-02-23T15:26:29.239Z,-1.45
2018-02-23T15:28:57.607Z,-1.51
2018-02-23T15:31:43.606Z,-1.56
2018-02-23T15:34:11.925Z,-1.57
2018-02-23T15:36:40.302Z,-1.61
2018-02-23T15:39:08.641Z,-1.66
2018-02-23T15:41:37.091Z,-1.63
2018-02-23T15:44:05.415Z,-1.60
2018-02-23T15:46:33.828Z,-1.63
2018-02-23T15:49:08.405Z,-1.68
2018-02-23T15:54:43.470Z,-1.79
2018-02-23T15:57:26.710Z,-1.86
2018-02-23T15:59:55.032Z,-1.86
2018-02-23T16:02:23.407Z,-1.97
2018-02-23T16:04:52.874Z,-2.03
2018-02-23T16:07:22.578Z,-2.04
2018-02-23T16:09:50.933Z,-2.08
2018-02-23T16:12:19.494Z,-2.20
2018-02-23T16:14:47.856Z,-2.29
2018-02-23T16:17:17.771Z,-2.27
2018-02-23T16:19:47.755Z,-2.24
2018-02-23T16:22:16.083Z,-2.18
2018-02-23T16:24:44.428Z,-2.33
2018-02-23T16:27:13.556Z,-2.42
2018-02-23T16:29:41.898Z,-2.44
2018-02-23T16:32:10.249Z,-2.51
2018-02-23T16:34:39.882Z,-2.61
2018-02-23T16:37:08.327Z,-2.59
2018-02-23T16:39:36.686Z,-2.70
2018-02-23T16:42:05.033Z,-2.74
2018-02-23T16:44:35.026Z,-2.74
2018-02-23T16:47:03.686Z,-2.70
2018-02-23T16:49:32.187Z,-2.80
2018-02-23T16:52:00.595Z,-2.77
2018-02-23T16:54:29.723Z,-2.85
2018-02-23T16:56:58.088Z,-2.87
2018-02-23T16:59:26.450Z,-2.91
2018-02-23T17:01:55.250Z,-3.05
2018-02-23T17:04:23.637Z,-3.21
2018-02-23T17:06:52.382Z,-2.94
2018-02-23T17:09:21.862Z,-2.94
2018-02-23T17:11:50.221Z,-2.98
2018-02-23T17:14:18.604Z,-3.01
2018-02-23T17:16:46.945Z,-3.12
2018-02-23T17:19:15.278Z,-3.00
2018-02-23T17:21:44.886Z,-3.09
2018-02-23T17:24:13.278Z,-3.05
2018-02-23T17:26:41.736Z,-3.17
2018-02-23T17:29:10.237Z,-3.11
2018-02-23T17:31:38.639Z,-3.17
2018-02-23T17:34:07.114Z,-3.21
2018-02-23T17:36:36.664Z,-3.28
2018-02-23T17:39:11.601Z,-3.43
2018-02-23T17:41:40.003Z,-3.43
2018-02-23T17:44:08.557Z,-3.26
2018-02-23T17:46:36.978Z,-3.24
2018-02-23T17:49:06.490Z,-3.49
2018-02-23T17:51:36.393Z,-3.58
2018-02-23T17:54:06.235Z,-3.62
2018-02-23T17:56:35.365Z,-3.45
2018-02-23T17:59:05.208Z,-3.47
2018-02-23T18:01:33.697Z,-3.60
2018-02-23T18:04:02.923Z,-3.60
2018-02-23T18:06:31.386Z,-3.70
2018-02-23T18:09:00.561Z,-3.78
2018-02-23T18:11:30.584Z,-3.87
2018-02-23T18:13:59.245Z,-3.80
2018-02-23T18:16:27.631Z,-3.71
2018-02-23T18:18:56.351Z,-3.86
2018-02-23T18:21:24.872Z,-3.87
2018-02-23T18:23:53.232Z,-3.97
2018-02-23T18:26:21.992Z,-3.93
2018-02-23T18:28:50.445Z,-3.88
2018-02-23T18:31:18.917Z,-3.92
2018-02-23T18:33:47.726Z,-3.81
2018-02-23T18:36:16.100Z,-3.95
2018-02-23T18:38:44.471Z,-4.07
2018-02-23T18:41:12.851Z,-4.10
2018-02-23T18:43:41.204Z,-4.25
2018-02-23T18:46:10.443Z,-4.44
2018-02-23T18:48:39.610Z,-4.51
2018-02-23T18:51:07.982Z,-4.54
2018-02-23T18:53:36.372Z,-4.47
2018-02-23T18:56:04.722Z,-4.50
2018-02-23T18:58:35.560Z,-4.54
2018-02-23T19:01:04.597Z,-4.57
2018-02-23T19:03:33.850Z,-4.60
2018-02-23T19:06:02.271Z,-4.60
2018-02-23T19:08:30.617Z,-4.44
2018-02-23T19:10:59.722Z,-4.09
2018-02-23T19:13:28.102Z,-3.91
2018-02-23T19:15:57.848Z,-3.93
2018-02-23T19:18:26.960Z,-4.10
2018-02-23T19:20:56.099Z,-4.03
2018-02-23T19:23:24.442Z,-4.09
2018-02-23T19:25:53.613Z,-4.11
2018-02-23T19:28:21.954Z,-4.13
2018-02-23T19:30:51.567Z,-4.16
2018-02-23T19:33:20.029Z,-4.19
2018-02-23T19:35:49.151Z,-4.27
2018-02-23T19:38:17.486Z,-4.19
2018-02-23T19:40:47.368Z,-4.16
2018-02-23T19:43:17.232Z,-4.27
2018-02-23T19:45:45.623Z,-4.42
2018-02-23T19:48:14.021Z,-4.49
2018-02-23T19:50:43.120Z,-4.40
2018-02-23T19:53:11.460Z,-4.41
2018-02-23T19:55:39.852Z,-4.51
2018-02-23T19:58:08.216Z,-4.61
2018-02-23T20:00:36.562Z,-4.67
2018-02-23T20:03:04.952Z,-4.40
2018-02-23T20:05:33.313Z,-4.57
2018-02-23T20:08:02.464Z,-4.64
2018-02-23T20:10:30.827Z,-4.69
2018-02-23T20:12:59.176Z,-4.82
2018-02-23T20:15:27.523Z,-4.73
2018-02-23T20:17:55.876Z,-4.79
2018-02-23T20:20:24.364Z,-4.87
2018-02-23T20:22:53.521Z,-4.94
2018-02-23T20:25:21.830Z,-4.91
2018-02-23T20:27:50.199Z,-4.95
2018-02-23T20:30:18.582Z,-5.00
2018-02-23T20:32:46.965Z,-5.08
2018-02-23T20:35:15.336Z,-5.14
2018-02-23T20:37:45.422Z,-5.11
2018-02-23T20:40:13.794Z,-5.24
2018-02-23T20:42:42.205Z,-5.30
2018-02-23T20:45:10.678Z,-5.29
2018-02-23T20:47:39.040Z,-5.27
2018-02-23T20:50:08.142Z,-5.39
2018-02-23T20:52:36.511Z,-5.36
2018-02-23T20:55:04.888Z,-5.33
2018-02-23T20:57:33.231Z,-5.31
2018-02-23T21:00:01.637Z,-5.34
2018-02-23T21:02:29.985Z,-5.40
2018-02-23T21:04:58.363Z,-5.36
2018-02-23T21:07:26.713Z,-5.36
2018-02-23T21:09:55.094Z,-5.46
2018-02-23T21:12:23.439Z,-5.39
2018-02-23T21:14:51.839Z,-5.34
2018-02-23T21:17:20.175Z,-5.34
2018-02-23T21:19:49.278Z,-5.31
2018-02-23T21:22:17.740Z,-5.30
2018-02-23T21:24:46.888Z,-5.33
2018-02-23T21:27:15.268Z,-5.41
2018-02-23T21:29:43.956Z,-5.51
2018-02-23T21:32:12.332Z,-5.61
2018-02-23T21:34:40.670Z,-5.62
2018-02-23T21:37:09.773Z,-5.69
2018-02-23T21:39:38.145Z,-5.82
2018-02-23T21:42:07.247Z,-5.93
2018-02-23T21:44:47.917Z,-6.04
2018-02-23T21:47:17.093Z,-6.11
2018-02-23T21:49:45.464Z,-6.19
2018-02-23T21:52:14.611Z,-6.27
2018-02-23T21:54:42.972Z,-6.31
2018-02-23T21:57:11.300Z,-6.31
2018-02-23T21:59:39.687Z,-6.37
2018-02-23T22:02:08.850Z,-6.18
2018-02-23T22:04:37.233Z,-6.16
2018-02-23T22:07:05.606Z,-6.17
2018-02-23T22:09:33.977Z,-6.16
2018-02-23T22:12:02.329Z,-6.20
2018-02-23T22:14:30.711Z,-6.17
2018-02-23T22:16:59.071Z,-6.29
2018-02-23T22:19:29.071Z,-6.37
2018-02-23T22:21:58.252Z,-6.52
2018-02-23T22:24:26.603Z,-6.60
2018-02-23T22:26:55.018Z,-6.73
2018-02-23T22:29:28.855Z,-6.65
2018-02-23T22:31:57.182Z,-6.50
2018-02-23T22:34:25.583Z,-6.65
2018-02-23T22:36:55.203Z,-6.71
2018-02-23T22:39:23.770Z,-6.67
2018-02-23T22:41:52.218Z,-6.69
2018-02-23T22:44:20.607Z,-6.73
2018-02-23T22:46:48.995Z,-6.79
2018-02-23T22:49:17.319Z,-6.87
2018-02-23T22:51:46.491Z,-6.94
2018-02-23T22:54:15.649Z,-6.99
2018-02-23T22:56:44.657Z,-6.98
2018-02-23T22:59:13.052Z,-7.04
2018-02-23T23:01:41.951Z,-6.97
2018-02-23T23:04:10.407Z,-6.91
2018-02-23T23:06:38.790Z,-6.94
2018-02-23T23:09:07.965Z,-6.91
2018-02-23T23:11:36.488Z,-6.90
2018-02-23T23:14:04.993Z,-6.87
2018-02-23T23:16:34.235Z,-7.00
2018-02-23T23:19:02.594Z,-7.15
2018-02-23T23:21:31.278Z,-7.25
2018-02-23T23:23:59.671Z,-7.31
2018-02-23T23:26:28.009Z,-7.24
2018-02-23T23:28:56.408Z,-7.26
2018-02-23T23:31:24.775Z,-7.38
2018-02-23T23:33:53.110Z,-7.49
2018-02-23T23:36:21.581Z,-7.53
2018-02-23T23:38:49.968Z,-7.52
2018-02-23T23:41:18.346Z,-7.49
2018-02-23T23:43:47.459Z,-7.54
2018-02-23T23:46:16.597Z,-7.65
2018-02-23T23:48:45.689Z,-7.63
2018-02-23T23:51:14.106Z,-7.63
2018-02-23T23:53:42.478Z,-7.65
2018-02-23T23:56:10.905Z,-7.73
2018-02-23T23:58:39.242Z,-7.71
